Time;durP1;ratioP1;P1;durP2;ratioP2;P2;SDS_P1;SDS_P2;PMS_P1;PMS_P2;Temp;Humidity;BMP_temperature;BMP_pressure;BME280_temperature;BME280_humidity;BME280_pressure;Samples;Min_cycle;Max_cycle;Signal;HPM_P1;HPM_P2
2023/10/01 00:00:12;;;;;;;5.40;2.22;;;14.70;99.90;;;;;;5058947;28;20062;-91
2023/10/01 00:02:41;;;;;;;7.60;2.20;;;14.70;99.90;;;;;;5035259;28;20043;-93
2023/10/01 00:05:08;;;;;;;4.45;1.85;;;14.70;99.90;;;;;;5043402;28;20036;-91
2023/10/01 00:07:37;;;;;;;9.75;2.35;;;14.70;99.90;;;;;;5065634;28;20505;-91
2023/10/01 00:10:10;;;;;;;5.97;2.00;;;14.80;99.90;;;;;;5042036;28;20074;-90
2023/10/01 00:12:38;;;;;;;5.57;1.92;;;14.80;99.90;;;;;;5058645;28;20538;-92
2023/10/01 00:15:06;;;;;;;7.78;1.95;;;14.80;99.90;;;;;;5075296;28;20048;-95
2023/10/01 00:17:31;;;;;;;5.88;1.83;;;14.80;99.90;;;;;;5042813;28;20044;-95
2023/10/01 00:20:00;;;;;;;5.82;1.70;;;14.80;99.90;;;;;;5032170;28;20047;-92
2023/10/01 00:22:26;;;;;;;7.85;1.90;;;14.80;99.90;;;;;;5040637;28;20043;-94
2023/10/01 00:24:52;;;;;;;5.97;1.85;;;14.80;99.90;;;;;;5056608;28;20052;-95
2023/10/01 00:27:18;;;;;;;7.90;2.00;;;14.80;99.90;;;;;;5035653;28;20383;-95
2023/10/01 00:29:44;;;;;;;7.05;2.00;;;14.80;99.90;;;;;;5029891;28;20041;-94
2023/10/01 00:32:10;;;;;;;8.18;2.22;;;14.80;99.90;;;;;;5058992;28;20040;-93
2023/10/01 00:34:36;;;;;;;8.32;2.45;;;14.80;99.90;;;;;;5026074;28;20081;-95
2023/10/01 00:37:02;;;;;;;5.30;2.20;;;14.80;99.90;;;;;;5034542;28;20043;-91
2023/10/01 00:39:28;;;;;;;6.97;2.23;;;14.80;99.90;;;;;;5034878;28;20045;-91
2023/10/01 00:41:54;;;;;;;6.90;2.08;;;14.80;99.90;;;;;;5062454;28;20041;-92
2023/10/01 00:44:20;;;;;;;6.78;2.20;;;14.80;99.90;;;;;;5049764;28;20093;-93
2023/10/01 00:46:46;;;;;;;8.00;2.22;;;14.80;99.90;;;;;;5046278;28;20071;-91
2023/10/01 00:49:12;;;;;;;5.28;2.17;;;14.80;99.90;;;;;;5044595;28;20115;-91
2023/10/01 00:51:38;;;;;;;7.13;2.57;;;14.80;99.90;;;;;;5070426;28;20090;-91
2023/10/01 00:54:04;;;;;;;5.03;2.13;;;14.80;99.90;;;;;;5057469;28;20036;-91
2023/10/01 00:56:31;;;;;;;7.20;2.40;;;14.80;99.90;;;;;;5081268;28;20036;-89
2023/10/01 00:58:57;;;;;;;7.70;3.38;;;14.80;99.90;;;;;;5061177;28;20039;-90
2023/10/01 01:01:26;;;;;;;9.65;2.88;;;14.60;99.90;;;;;;5061593;28;20044;-94
2023/10/01 01:03:52;;;;;;;6.65;2.50;;;14.70;99.90;;;;;;5061149;28;20035;-91
2023/10/01 01:06:23;;;;;;;8.98;2.90;;;14.80;99.90;;;;;;5062929;28;20078;-91
2023/10/01 01:08:54;;;;;;;7.70;2.72;;;14.80;99.90;;;;;;5066023;28;20044;-94
2023/10/01 01:11:21;;;;;;;7.53;3.25;;;14.80;99.90;;;;;;5036348;28;20046;-92
2023/10/01 01:13:51;;;;;;;7.00;2.88;;;14.70;99.90;;;;;;5063153;28;20036;-90
2023/10/01 01:16:19;;;;;;;6.65;2.97;;;14.80;99.90;;;;;;5023659;28;20105;-90
2023/10/01 01:18:51;;;;;;;4.93;2.78;;;14.70;99.90;;;;;;5039965;28;20119;-89
2023/10/01 01:21:20;;;;;;;6.45;3.20;;;14.80;99.90;;;;;;5022429;28;20045;-89
2023/10/01 01:23:46;;;;;;;10.13;3.50;;;14.70;99.90;;;;;;5033252;28;20429;-90
2023/10/01 01:26:20;;;;;;;6.68;3.30;;;14.70;99.90;;;;;;5027093;28;20491;-93
2023/10/01 01:28:47;;;;;;;10.15;3.58;;;14.80;99.90;;;;;;5063358;28;20643;-90
2023/10/01 01:31:14;;;;;;;6.60;3.35;;;14.70;99.90;;;;;;5040869;28;20483;-92
2023/10/01 01:33:52;;;;;;;9.30;3.80;;;14.80;99.90;;;;;;5040788;28;20032;-90
2023/10/01 01:36:19;;;;;;;7.35;3.53;;;14.80;99.90;;;;;;5068830;28;20465;-91
2023/10/01 01:39:13;;;;;;;7.60;3.22;;;14.80;99.90;;;;;;5046325;28;20040;-92
2023/10/01 01:41:42;;;;;;;6.82;3.58;;;14.70;99.90;;;;;;5040615;28;20435;-89
2023/10/01 01:44:14;;;;;;;8.25;3.80;;;14.70;99.90;;;;;;5018688;28;20490;-92
2023/10/01 01:46:49;;;;;;;9.73;3.78;;;14.70;99.90;;;;;;5043127;28;20120;-91
2023/10/01 01:49:19;;;;;;;9.15;4.05;;;14.70;99.90;;;;;;5024293;28;20471;-96
2023/10/01 01:51:59;;;;;;;8.32;4.10;;;14.70;99.90;;;;;;5073191;28;20040;-91
2023/10/01 01:54:31;;;;;;;6.43;3.90;;;14.70;99.90;;;;;;5041606;28;20511;-92
2023/10/01 01:56:58;;;;;;;7.72;3.78;;;14.70;99.90;;;;;;5040187;28;20120;-91
2023/10/01 01:59:27;;;;;;;8.10;4.30;;;14.70;99.90;;;;;;5021937;28;20091;-89
2023/10/01 02:01:55;;;;;;;12.02;4.78;;;14.70;99.90;;;;;;5023975;28;20874;-91
2023/10/01 02:04:24;;;;;;;8.70;4.28;;;14.70;99.90;;;;;;5039796;28;20055;-91
2023/10/01 02:06:54;;;;;;;7.43;3.88;;;14.70;99.90;;;;;;5023817;28;20040;-91
2023/10/01 02:09:20;;;;;;;8.95;4.75;;;14.70;99.90;;;;;;5044367;28;20064;-91
2023/10/01 02:11:49;;;;;;;7.85;4.78;;;14.70;99.90;;;;;;5006569;28;20388;-91
2023/10/01 02:14:31;;;;;;;9.88;4.70;;;14.70;99.90;;;;;;5013606;28;20083;-90
2023/10/01 02:17:16;;;;;;;8.73;4.05;;;14.70;99.90;;;;;;5037981;28;20033;-92
2023/10/01 02:19:49;;;;;;;9.48;4.82;;;14.70;99.90;;;;;;5018251;28;20045;-90
2023/10/01 02:22:20;;;;;;;9.15;4.28;;;14.70;99.90;;;;;;5028709;28;20037;-91
2023/10/01 02:24:56;;;;;;;8.40;4.40;;;14.70;99.90;;;;;;5006568;28;20040;-90
2023/10/01 02:27:28;;;;;;;9.57;5.15;;;14.60;99.90;;;;;;5034322;28;20036;-91
2023/10/01 02:30:12;;;;;;;7.35;4.78;;;14.70;99.90;;;;;;5026979;28;20032;-92
2023/10/01 02:32:49;;;;;;;9.55;4.75;;;14.60;99.90;;;;;;5041821;28;20506;-92
2023/10/01 02:35:36;;;;;;;6.63;4.30;;;14.70;99.90;;;;;;5074082;28;20036;-90
2023/10/01 02:38:07;;;;;;;11.18;4.95;;;14.60;99.90;;;;;;5043237;28;20056;-92
2023/10/01 02:40:36;;;;;;;8.10;4.60;;;14.60;99.90;;;;;;5038657;28;20051;-91
2023/10/01 02:43:06;;;;;;;8.20;5.05;;;14.60;99.90;;;;;;5036154;28;20421;-92
2023/10/01 02:45:33;;;;;;;8.98;5.22;;;14.70;99.90;;;;;;5020848;28;20041;-94
2023/10/01 02:48:13;;;;;;;7.50;5.40;;;14.60;99.90;;;;;;5018597;28;20115;-94
2023/10/01 02:50:45;;;;;;;10.90;5.13;;;14.60;99.90;;;;;;5039309;28;20550;-94
2023/10/01 02:53:14;;;;;;;10.13;5.53;;;14.60;99.90;;;;;;5023879;28;20039;-92
2023/10/01 02:55:44;;;;;;;9.80;5.28;;;14.60;99.90;;;;;;5022991;28;20097;-94
2023/10/01 02:58:26;;;;;;;11.05;5.72;;;14.60;99.90;;;;;;5018110;28;20047;-95
2023/10/01 03:00:53;;;;;;;9.98;5.55;;;14.60;99.90;;;;;;5016302;28;20558;-90
2023/10/01 03:03:31;;;;;;;7.97;5.18;;;14.60;99.90;;;;;;5009915;28;20035;-92
2023/10/01 03:05:56;;;;;;;;;;;14.50;99.90;;;;;;5064954;28;20527;-91
2023/10/01 03:08:59;;;;;;;11.38;5.70;;;14.50;99.90;;;;;;5039806;28;19920;-93
2023/10/01 03:11:11;;;;;;;11.77;6.10;;;14.60;99.90;;;;;;5042064;28;20044;-90
2023/10/01 03:13:40;;;;;;;8.32;6.30;;;14.50;99.90;;;;;;5015782;28;20037;-93
2023/10/01 03:18:55;;;;;;;11.63;6.65;;;14.60;99.90;;;;;;5052583;28;20506;-90
2023/10/01 03:24:09;;;;;;;8.90;5.80;;;14.50;99.90;;;;;;5081198;28;20036;-94
2023/10/01 03:26:35;;;;;;;13.23;5.85;;;14.50;99.90;;;;;;5055720;28;20098;-92
2023/10/01 03:29:34;;;;;;;9.50;5.40;;;14.60;99.90;;;;;;5056258;28;20040;-94
2023/10/01 03:34:52;;;;;;;10.50;5.53;;;14.50;99.90;;;;;;5086710;28;20051;-92
2023/10/01 03:37:19;;;;;;;8.68;5.22;;;14.50;99.90;;;;;;5067192;28;20046;-92
2023/10/01 03:39:52;;;;;;;9.27;5.68;;;14.50;99.90;;;;;;5059004;28;20039;-92
2023/10/01 03:42:18;;;;;;;11.65;5.72;;;14.50;99.90;;;;;;5043168;28;20553;-94
2023/10/01 03:45:05;;;;;;;9.38;5.32;;;14.60;99.90;;;;;;5041672;28;20040;-91
2023/10/01 03:47:34;;;;;;;8.52;6.00;;;14.50;99.90;;;;;;5077876;28;20064;-90
2023/10/01 03:50:00;;;;;;;9.30;5.90;;;14.50;99.90;;;;;;5050038;28;20040;-91
2023/10/01 03:52:29;;;;;;;8.63;5.45;;;14.50;99.90;;;;;;5104497;28;20042;-90
2023/10/01 03:57:29;;;;;;;8.70;5.68;;;14.50;99.90;;;;;;5075153;28;20139;-92
2023/10/01 03:59:57;;;;;;;9.80;6.07;;;14.60;99.90;;;;;;5054404;28;20046;-91
2023/10/01 04:02:27;;;;;;;8.52;5.43;;;14.50;99.90;;;;;;5052853;28;20091;-92
2023/10/01 04:04:57;;;;;;;10.80;5.82;;;14.50;99.90;;;;;;5061726;28;20051;-90
2023/10/01 04:07:40;;;;;;;10.57;5.60;;;14.50;99.90;;;;;;5063633;28;20563;-91
2023/10/01 04:10:14;;;;;;;10.45;5.40;;;14.50;99.90;;;;;;5044681;28;20036;-93
2023/10/01 04:12:58;;;;;;;8.00;5.40;;;14.60;99.90;;;;;;5043386;28;20402;-90
2023/10/01 04:15:27;;;;;;;12.13;5.75;;;14.60;99.90;;;;;;5055978;28;20101;-92
2023/10/01 04:23:32;;;;;;;10.07;6.07;;;14.60;99.90;;;;;;5106015;28;20036;-94
2023/10/01 04:26:06;;;;;;;7.90;5.63;;;14.60;99.90;;;;;;5050900;28;20040;-94
2023/10/01 04:28:37;;;;;;;6.90;4.97;;;14.60;99.90;;;;;;5067144;28;20122;-95
2023/10/01 04:31:09;;;;;;;10.25;5.63;;;14.60;99.90;;;;;;5094528;28;20168;-93
2023/10/01 04:33:42;;;;;;;9.20;5.30;;;14.60;99.90;;;;;;5043266;28;20036;-93
2023/10/01 04:36:11;;;;;;;9.98;5.50;;;14.60;99.90;;;;;;5040235;28;20083;-91
2023/10/01 04:38:43;;;;;;;9.57;5.35;;;14.60;99.90;;;;;;5073868;28;20398;-94
2023/10/01 04:41:16;;;;;;;8.48;4.80;;;14.60;99.90;;;;;;5046380;28;20036;-92
2023/10/01 04:46:31;;;;;;;7.82;5.43;;;14.60;99.90;;;;;;5113031;28;20040;-95
2023/10/01 04:48:56;;;;;;;11.07;5.07;;;14.60;99.90;;;;;;5062818;28;20032;-92
2023/10/01 04:51:22;;;;;;;8.75;5.32;;;14.70;99.90;;;;;;5054392;28;20036;-94
2023/10/01 04:53:59;;;;;;;9.98;5.10;;;14.60;99.90;;;;;;5025713;28;20127;-94
2023/10/01 04:56:25;;;;;;;7.90;5.55;;;14.70;99.90;;;;;;5043673;28;20131;-91
2023/10/01 04:58:54;;;;;;;10.23;5.45;;;14.70;99.90;;;;;;5053936;28;20075;-96
2023/10/01 05:01:28;;;;;;;11.60;5.70;;;14.60;99.90;;;;;;5061966;28;20122;-91
2023/10/01 05:03:56;;;;;;;9.30;5.53;;;14.60;99.90;;;;;;5079464;28;20080;-94
2023/10/01 05:06:23;;;;;;;10.00;5.15;;;14.70;99.90;;;;;;5048381;28;20040;-93
2023/10/01 05:08:53;;;;;;;10.70;6.15;;;14.60;99.90;;;;;;5099230;28;20032;-95
2023/10/01 05:11:22;;;;;;;8.57;5.70;;;14.60;99.90;;;;;;5077180;28;20032;-90
2023/10/01 05:13:58;;;;;;;8.50;5.57;;;14.60;99.90;;;;;;5060886;28;20040;-95
2023/10/01 05:16:27;;;;;;;9.75;5.50;;;14.60;99.90;;;;;;5068403;28;20101;-92
2023/10/01 05:21:52;;;;;;;10.18;6.00;;;14.60;99.90;;;;;;5070870;28;20051;-90
2023/10/01 05:24:35;;;;;;;8.13;5.70;;;14.50;99.90;;;;;;5058663;28;20044;-91
2023/10/01 05:27:09;;;;;;;10.55;6.22;;;14.50;99.90;;;;;;5045422;28;20040;-90
2023/10/01 05:29:42;;;;;;;9.77;5.60;;;14.50;99.90;;;;;;5077087;28;20490;-92
2023/10/01 05:32:10;;;;;;;10.73;6.10;;;14.50;99.90;;;;;;5043990;28;20039;-92
2023/10/01 05:34:38;;;;;;;11.35;6.28;;;14.50;99.90;;;;;;5054058;28;20039;-90
2023/10/01 05:37:12;;;;;;;9.70;6.07;;;14.50;99.90;;;;;;5076296;28;20127;-89
2023/10/01 05:39:57;;;;;;;8.57;6.30;;;14.50;99.90;;;;;;5050658;28;20040;-89
2023/10/01 05:42:28;;;;;;;10.50;6.43;;;14.50;99.90;;;;;;5042992;28;20040;-89
2023/10/01 05:44:59;;;;;;;10.60;6.15;;;14.40;99.90;;;;;;5043296;28;20039;-88
2023/10/01 05:50:12;;;;;;;11.20;6.90;;;14.50;99.90;;;;;;5107224;28;20040;-90
2023/10/01 05:52:40;;;;;;;9.30;5.72;;;14.40;99.90;;;;;;5057174;28;20048;-91
2023/10/01 05:55:12;;;;;;;13.07;6.70;;;14.40;99.90;;;;;;5040685;28;20051;-90
2023/10/01 05:57:39;;;;;;;11.90;6.35;;;14.50;99.90;;;;;;5056319;28;20395;-92
2023/10/01 06:00:16;;;;;;;13.98;6.07;;;14.40;99.90;;;;;;5074031;28;20040;-91
2023/10/01 06:03:00;;;;;;;8.05;5.63;;;14.70;99.90;;;;;;5044358;28;20202;-93
2023/10/01 06:05:33;;;;;;;10.88;6.38;;;14.40;99.90;;;;;;5045182;28;20494;-94
2023/10/01 06:08:23;;;;;;;9.65;6.13;;;14.40;99.90;;;;;;5094146;28;20047;-92
2023/10/01 06:11:09;;;;;;;10.75;5.93;;;14.40;99.90;;;;;;5040648;28;20058;-92
2023/10/01 06:13:38;;;;;;;11.07;6.35;;;14.40;99.90;;;;;;5079308;28;20033;-94
2023/10/01 06:16:15;;;;;;;11.48;5.78;;;14.40;99.90;;;;;;5048103;28;20048;-93
2023/10/01 06:19:32;;;;;;;9.18;6.28;;;14.40;99.90;;;;;;5053526;28;20089;-92
2023/10/01 06:21:32;;;;;;;9.82;5.57;;;14.40;99.90;;;;;;5040982;28;20399;-92
2023/10/01 06:24:04;;;;;;;11.18;6.32;;;14.40;99.90;;;;;;5034291;28;20122;-94
2023/10/01 06:26:36;;;;;;;8.52;5.53;;;14.40;99.90;;;;;;5052672;28;20072;-92
2023/10/01 06:29:05;;;;;;;8.55;5.47;;;14.40;99.90;;;;;;5053508;28;20096;-94
2023/10/01 06:31:52;;;;;;;10.40;5.85;;;14.40;99.90;;;;;;5043178;28;20036;-92
2023/10/01 06:34:23;;;;;;;8.40;5.45;;;14.40;99.90;;;;;;5043279;28;20085;-91
2023/10/01 06:37:01;;;;;;;11.02;5.90;;;14.40;99.90;;;;;;5054168;28;20421;-92
2023/10/01 06:39:32;;;;;;;9.02;4.63;;;14.40;99.90;;;;;;5035592;28;20033;-91
2023/10/01 06:44:44;;;;;;;9.38;5.57;;;14.40;99.90;;;;;;5075653;28;20687;-91
2023/10/01 06:47:16;;;;;;;10.43;4.93;;;14.40;99.90;;;;;;5092694;28;20039;-94
2023/10/01 06:52:34;;;;;;;10.27;4.95;;;14.50;99.90;;;;;;5072975;28;20040;-93
2023/10/01 06:55:01;;;;;;;9.93;5.13;;;14.50;99.90;;;;;;5039863;28;20387;-95
2023/10/01 06:57:33;;;;;;;8.52;5.30;;;14.60;99.90;;;;;;5089831;28;20269;-90
2023/10/01 06:59:59;;;;;;;10.63;5.22;;;14.60;99.90;;;;;;5058169;28;20085;-91
2023/10/01 07:02:26;;;;;;;9.20;5.10;;;14.60;99.90;;;;;;5073956;28;20389;-89
2023/10/01 07:04:56;;;;;;;8.05;5.95;;;14.70;99.90;;;;;;5090156;28;20048;-88
2023/10/01 07:07:28;;;;;;;11.20;5.32;;;14.70;99.90;;;;;;5055826;28;20670;-89
2023/10/01 07:09:56;;;;;;;11.35;6.05;;;14.70;99.90;;;;;;5056690;28;20028;-88
2023/10/01 07:12:24;;;;;;;10.80;6.05;;;14.70;99.90;;;;;;5053163;28;20032;-92
2023/10/01 07:18:29;;;;;;;12.27;5.88;;;14.70;99.90;;;;;;5070904;28;20051;-91
2023/10/01 07:21:00;;;;;;;8.40;5.40;;;14.80;99.90;;;;;;5016415;28;20040;-93
2023/10/01 07:23:26;;;;;;;6.95;4.80;;;14.80;99.90;;;;;;5038884;28;20110;-91
2023/10/01 07:26:03;;;;;;;12.38;5.95;;;14.90;99.90;;;;;;5038620;28;20046;-90
2023/10/01 07:28:30;;;;;;;9.60;5.25;;;15.00;99.90;;;;;;5052737;28;20486;-92
2023/10/01 07:31:01;;;;;;;8.13;5.33;;;15.00;99.90;;;;;;5032251;28;20035;-88
2023/10/01 07:33:33;;;;;;;12.07;5.82;;;15.10;99.90;;;;;;5052509;28;20470;-93
2023/10/01 07:36:10;;;;;;;10.65;5.25;;;15.20;99.90;;;;;;5079408;28;20102;-92
2023/10/01 07:38:56;;;;;;;9.68;5.43;;;15.30;99.90;;;;;;5056151;28;20134;-91
2023/10/01 07:41:25;;;;;;;9.20;4.50;;;15.30;99.90;;;;;;5054811;28;20040;-90
2023/10/01 07:43:53;;;;;;;11.75;5.85;;;15.40;99.90;;;;;;5052426;28;20043;-91
2023/10/01 07:46:19;;;;;;;10.50;5.50;;;15.40;99.90;;;;;;5050781;28;20040;-88
2023/10/01 07:48:49;;;;;;;9.93;5.25;;;15.50;99.90;;;;;;5043338;28;20040;-91
2023/10/01 07:51:26;;;;;;;7.97;4.97;;;15.00;99.90;;;;;;5057463;28;20418;-90
2023/10/01 07:53:59;;;;;;;9.70;5.20;;;15.50;99.90;;;;;;5056633;28;20123;-90
2023/10/01 07:56:25;;;;;;;10.75;5.00;;;15.50;99.90;;;;;;5058146;28;20512;-94
2023/10/01 07:59:42;;;;;;;10.40;4.95;;;15.50;99.90;;;;;;5036495;28;20188;-90
2023/10/01 08:01:42;;;;;;;8.90;4.72;;;15.50;99.90;;;;;;5057516;28;20090;-90
2023/10/01 08:04:38;;;;;;;8.18;4.32;;;15.50;99.90;;;;;;5055784;28;20042;-94
2023/10/01 08:07:05;;;;;;;8.73;4.93;;;15.40;99.90;;;;;;5065362;28;20048;-90
2023/10/01 08:09:32;;;;;;;10.52;4.53;;;15.40;99.90;;;;;;5042226;28;20135;-93
2023/10/01 08:11:58;;;;;;;9.65;4.93;;;15.40;99.90;;;;;;5024100;28;20101;-91
2023/10/01 08:14:26;;;;;;;9.30;5.25;;;15.40;99.90;;;;;;5021571;28;20467;-91
2023/10/01 08:17:00;;;;;;;11.15;5.15;;;15.40;99.90;;;;;;5052890;28;20127;-92
2023/10/01 08:19:44;;;;;;;10.82;4.85;;;15.40;99.90;;;;;;5071468;28;20163;-93
2023/10/01 08:22:22;;;;;;;14.70;5.85;;;15.40;99.90;;;;;;5047330;28;20419;-95
2023/10/01 08:24:50;;;;;;;8.88;5.40;;;15.50;99.90;;;;;;5061529;28;20048;-96
2023/10/01 08:27:32;;;;;;;;;;;15.40;99.90;;;;;;5060679;28;20123;-96
2023/10/01 08:32:49;;;;;;;9.18;4.47;;;15.50;99.90;;;;;;5076856;28;20048;-95
2023/10/01 08:35:23;;;;;;;8.43;4.75;;;15.50;99.90;;;;;;5023079;28;20040;-95
2023/10/01 08:37:59;;;;;;;9.80;5.13;;;15.60;99.90;;;;;;5038330;28;20119;-92
2023/10/01 08:40:29;;;;;;;8.75;4.75;;;15.60;99.90;;;;;;5039196;28;20546;-96
2023/10/01 08:42:58;;;;;;;12.30;4.78;;;15.60;99.90;;;;;;5053128;28;20045;-93
2023/10/01 08:45:37;;;;;;;10.80;4.90;;;15.60;99.90;;;;;;5040701;28;20043;-92
2023/10/01 08:48:17;;;;;;;8.90;4.63;;;15.70;99.90;;;;;;5055031;28;20395;-93
2023/10/01 08:50:45;;;;;;;7.90;4.47;;;15.80;99.90;;;;;;5047408;28;20665;-93
2023/10/01 08:53:12;;;;;;;9.45;5.40;;;15.80;99.90;;;;;;5059864;28;20479;-96
2023/10/01 09:00:53;;;;;;;11.95;4.90;;;15.90;99.90;;;;;;5081246;28;20036;-92
2023/10/01 09:03:30;;;;;;;9.07;4.07;;;16.00;99.90;;;;;;5076079;22;20043;-91
2023/10/01 09:06:08;;;;;;;10.18;4.28;;;16.00;99.90;;;;;;5009867;28;20083;-92
2023/10/01 09:08:45;;;;;;;;;;;16.00;99.90;;;;;;5029904;28;20581;-91
2023/10/01 09:11:17;;;;;;;10.18;4.50;;;16.00;99.90;;;;;;5004871;28;19917;-92
2023/10/01 09:13:58;;;;;;;9.50;4.90;;;16.10;99.90;;;;;;5012041;28;20046;-91
2023/10/01 09:16:31;;;;;;;9.02;4.40;;;16.10;99.90;;;;;;5028347;28;20041;-92
2023/10/01 09:19:30;;;;;;;9.65;4.20;;;16.20;99.90;;;;;;5031242;28;20044;-90
2023/10/01 09:21:50;;;;;;;10.75;5.05;;;16.30;99.90;;;;;;5048338;28;20132;-92
2023/10/01 09:24:39;;;;;;;9.93;4.60;;;16.60;99.90;;;;;;5022331;28;20187;-93
2023/10/01 09:27:18;;;;;;;11.10;4.97;;;16.70;99.90;;;;;;5028810;28;20098;-93
2023/10/01 09:29:57;;;;;;;10.52;4.60;;;16.80;99.90;;;;;;5021379;28;20049;-93
2023/10/01 09:32:54;;;;;;;9.43;4.65;;;17.00;99.90;;;;;;5035004;28;20051;-93
2023/10/01 09:36:44;;;;;;;;;;;;;;;;;;;;;
2023/10/01 09:43:18;;;;;;;9.63;5.38;;;17.50;99.90;;;;;;4910565;28;20055;-95
2023/10/01 09:50:24;;;;;;;12.03;4.27;;;17.80;99.90;;;;;;5002625;28;20045;-95
2023/10/01 09:53:12;;;;;;;10.23;4.45;;;18.00;99.90;;;;;;4984254;28;20129;-94
2023/10/01 09:56:09;;;;;;;9.10;4.60;;;18.00;99.90;;;;;;4970375;28;20106;-95
2023/10/01 09:58:47;;;;;;;8.52;4.78;;;18.10;99.90;;;;;;5001171;28;20068;-94
2023/10/01 10:01:17;;;;;;;10.45;4.25;;;18.10;99.90;;;;;;5031612;28;20033;-95
2023/10/01 10:03:44;;;;;;;9.10;4.60;;;18.20;99.90;;;;;;5029739;28;20094;-95
2023/10/01 10:10:00;;;;;;;9.63;4.70;;;18.50;99.90;;;;;;5059151;28;20058;-95
2023/10/01 10:13:19;;;;;;;8.55;4.53;;;18.60;99.90;;;;;;5044401;28;20049;-95
2023/10/01 10:24:04;;;;;;;12.23;4.45;;;19.10;99.90;;;;;;4809528;29;20526;-95
2023/10/01 10:30:41;;;;;;;13.30;4.93;;;19.30;99.90;;;;;;5001421;22;20101;-91
2023/10/01 10:33:16;;;;;;;8.90;4.75;;;19.60;99.90;;;;;;5038600;28;20043;-93
2023/10/01 10:35:51;;;;;;;12.02;5.07;;;19.70;99.90;;;;;;5052795;28;20127;-92
2023/10/01 10:38:51;;;;;;;11.43;4.63;;;19.80;99.90;;;;;;5043444;28;20094;-91
2023/10/01 10:41:19;;;;;;;11.55;4.97;;;19.90;99.90;;;;;;5052862;28;20102;-93
2023/10/01 10:44:08;;;;;;;23.33;5.68;;;20.10;99.90;;;;;;5053610;28;21440;-95
2023/10/01 10:47:03;;;;;;;12.07;5.32;;;20.10;99.90;;;;;;5058958;28;20064;-90
2023/10/01 10:49:57;;;;;;;33.83;6.72;;;20.10;99.90;;;;;;5035886;28;20044;-93
2023/10/01 10:52:36;;;;;;;10.48;4.78;;;20.20;99.90;;;;;;5052210;28;20088;-91
2023/10/01 10:55:16;;;;;;;11.90;4.63;;;20.20;99.90;;;;;;5043678;28;20066;-92
2023/10/01 10:57:49;;;;;;;9.43;4.28;;;20.20;99.90;;;;;;5046984;28;20037;-92
2023/10/01 11:00:27;;;;;;;30.85;7.25;;;20.20;99.90;;;;;;5056379;28;20619;-90
2023/10/01 11:02:56;;;;;;;21.48;6.60;;;20.30;99.90;;;;;;5044571;28;20098;-93
2023/10/01 11:05:29;;;;;;;41.20;8.40;;;20.30;99.90;;;;;;5045863;28;20068;-92
2023/10/01 11:07:59;;;;;;;11.27;4.70;;;20.30;99.90;;;;;;5041329;28;20042;-94
2023/10/01 11:10:29;;;;;;;45.65;8.18;;;20.20;99.90;;;;;;5075443;28;20040;-92
2023/10/01 11:12:55;;;;;;;37.70;8.23;;;19.90;99.90;;;;;;5042725;28;20036;-91
2023/10/01 11:15:23;;;;;;;23.10;6.30;;;20.20;99.90;;;;;;5040488;28;20036;-92
2023/10/01 11:18:01;;;;;;;23.45;6.82;;;20.10;99.90;;;;;;5055394;28;20836;-88
2023/10/01 11:20:34;;;;;;;15.90;5.18;;;20.00;99.90;;;;;;5055483;28;20055;-91
2023/10/01 11:22:59;;;;;;;10.73;5.30;;;20.00;99.90;;;;;;5049439;28;20047;-91
2023/10/01 11:25:26;;;;;;;12.48;4.50;;;19.90;99.90;;;;;;5054111;28;20036;-91
2023/10/01 11:28:16;;;;;;;19.40;6.23;;;19.90;99.90;;;;;;5023068;28;20920;-91
2023/10/01 11:30:44;;;;;;;11.25;5.32;;;19.90;99.90;;;;;;5062024;28;20083;-92
2023/10/01 11:35:41;;;;;;;11.57;4.95;;;20.00;99.90;;;;;;5086125;28;20063;-94
2023/10/01 11:38:13;;;;;;;11.15;3.95;;;20.10;99.90;;;;;;5070523;28;20047;-94
2023/10/01 11:43:27;;;;;;;12.82;4.45;;;20.20;99.90;;;;;;5076333;28;20139;-94
2023/10/01 11:49:02;;;;;;;20.30;5.35;;;20.30;99.90;;;;;;5069445;28;20490;-94
2023/10/01 11:51:36;;;;;;;31.23;6.80;;;20.00;99.90;;;;;;5060024;28;20040;-92
2023/10/01 11:54:09;;;;;;;17.63;5.65;;;20.30;99.90;;;;;;5043767;28;20311;-92
2023/10/01 11:56:40;;;;;;;15.43;5.15;;;20.30;99.90;;;;;;5054524;28;20035;-92
2023/10/01 11:59:08;;;;;;;10.45;4.65;;;20.30;99.90;;;;;;5049633;28;20040;-92
2023/10/01 12:01:48;;;;;;;9.52;4.57;;;20.30;99.90;;;;;;5056045;28;20039;-92
2023/10/01 12:04:24;;;;;;;10.20;4.40;;;20.30;99.90;;;;;;5060089;28;20048;-91
2023/10/01 12:06:54;;;;;;;15.13;5.25;;;20.30;99.90;;;;;;5045652;28;20068;-91
2023/10/01 12:09:24;;;;;;;15.45;4.90;;;20.20;99.90;;;;;;5048080;28;20041;-91
2023/10/01 12:12:25;;;;;;;16.40;5.18;;;20.30;99.90;;;;;;5041525;28;20036;-93
2023/10/01 12:15:32;;;;;;;28.77;6.05;;;20.20;99.90;;;;;;5066883;28;20077;-91
2023/10/01 12:17:48;;;;;;;31.52;6.45;;;20.30;99.90;;;;;;5060123;28;20089;-92
2023/10/01 12:20:23;;;;;;;95.38;11.63;;;20.50;99.90;;;;;;5040947;28;20032;-93
2023/10/01 12:26:31;;;;;;;373.67;33.70;;;20.50;99.90;;;;;;5054403;28;20041;-90
2023/10/01 12:29:10;;;;;;;64.47;10.18;;;20.50;99.90;;;;;;5054556;28;20428;-91
2023/10/01 12:31:25;;;;;;;28.58;6.93;;;20.50;99.90;;;;;;5069956;28;20109;-91
2023/10/01 12:33:58;;;;;;;10.68;4.50;;;20.60;99.90;;;;;;5040745;28;20531;-90
2023/10/01 12:36:31;;;;;;;27.70;5.72;;;20.60;99.90;;;;;;5043516;28;20535;-91
2023/10/01 12:41:56;;;;;;;160.20;15.00;;;20.70;99.90;;;;;;5068369;28;20149;-92
2023/10/01 12:44:27;;;;;;;43.28;7.43;;;20.60;99.90;;;;;;5038116;28;20055;-93
2023/10/01 12:47:07;;;;;;;40.35;6.68;;;20.60;99.90;;;;;;5056409;28;20040;-92
2023/10/01 12:49:34;;;;;;;24.42;6.07;;;20.70;99.90;;;;;;5041396;28;20169;-92
2023/10/01 12:51:59;;;;;;;;;;;20.80;99.90;;;;;;5053163;28;20033;-95
2023/10/01 12:54:25;;;;;;;31.33;6.85;;;20.80;99.90;;;;;;5059415;28;19917;-94
2023/10/01 12:57:18;;;;;;;15.77;5.93;;;21.00;99.90;;;;;;5054787;28;20064;-94
2023/10/01 12:59:46;;;;;;;15.38;5.53;;;21.00;99.90;;;;;;5058599;28;20047;-93
2023/10/01 13:02:22;;;;;;;14.50;5.50;;;21.00;99.90;;;;;;5061891;28;20047;-93
2023/10/01 13:07:42;;;;;;;67.45;10.35;;;21.00;99.90;;;;;;5070698;28;20116;-92
2023/10/01 13:10:08;;;;;;;45.72;9.02;;;21.00;99.90;;;;;;5055294;28;20463;-91
2023/10/01 13:15:38;;;;;;;11.65;4.78;;;21.10;99.90;;;;;;5049773;28;20515;-95
2023/10/01 13:18:12;;;;;;;62.33;8.32;;;21.10;99.90;;;;;;5049756;28;20051;-96
2023/10/01 13:23:25;;;;;;;9.05;4.53;;;21.20;99.90;;;;;;5044298;28;20123;-95
2023/10/01 13:26:06;;;;;;;8.18;4.80;;;21.20;99.90;;;;;;5040861;28;20040;-96
2023/10/01 13:28:56;;;;;;;11.02;5.13;;;21.20;99.90;;;;;;5042863;28;20455;-92
2023/10/01 13:34:06;;;;;;;8.25;4.35;;;21.10;99.90;;;;;;5076067;28;20032;-94
2023/10/01 13:39:48;;;;;;;;;;;21.00;99.90;;;;;;5054262;28;20041;-92
2023/10/01 14:10:16;;;;;;;12.43;5.25;;;20.80;99.90;;;;;;5054337;28;20100;-94
2023/10/01 14:12:54;;;;;;;10.32;5.15;;;20.70;99.90;;;;;;5057055;28;20165;-92
2023/10/01 14:15:21;;;;;;;10.68;5.13;;;20.70;99.90;;;;;;5019758;28;20048;-94
2023/10/01 14:17:55;;;;;;;12.77;5.35;;;20.70;99.90;;;;;;5023440;28;20378;-95
2023/10/01 14:20:38;;;;;;;11.48;5.30;;;20.70;99.90;;;;;;5038048;28;20044;-95
2023/10/01 14:23:07;;;;;;;8.18;4.75;;;20.70;99.90;;;;;;5021153;28;20048;-96
2023/10/01 14:25:53;;;;;;;9.00;4.60;;;20.70;99.90;;;;;;5035985;28;20041;-95
2023/10/01 14:28:26;;;;;;;8.82;5.15;;;20.60;99.90;;;;;;5028079;28;20124;-90
2023/10/01 14:30:59;;;;;;;11.18;5.22;;;20.70;99.90;;;;;;5042414;28;20182;-96
2023/10/01 14:33:26;;;;;;;10.23;5.13;;;20.60;99.90;;;;;;5030652;28;20124;-96
2023/10/01 14:35:54;;;;;;;10.02;5.85;;;20.60;99.90;;;;;;5035441;28;20051;-93
2023/10/01 14:38:37;;;;;;;9.98;5.15;;;20.60;99.90;;;;;;5025351;28;20045;-95
2023/10/01 14:41:10;;;;;;;12.50;5.90;;;20.60;99.90;;;;;;5018274;28;20072;-96
2023/10/01 14:43:51;;;;;;;10.15;5.35;;;20.60;99.90;;;;;;5035911;28;20044;-94
2023/10/01 14:46:30;;;;;;;9.00;4.68;;;20.60;99.90;;;;;;5039428;28;20554;-94
2023/10/01 14:49:04;;;;;;;12.80;5.72;;;20.50;99.90;;;;;;5059198;28;20068;-94
2023/10/01 14:51:35;;;;;;;11.23;5.63;;;20.50;99.90;;;;;;5038618;28;20504;-95
2023/10/01 14:54:03;;;;;;;9.52;4.85;;;20.50;99.90;;;;;;5024860;28;20036;-95
2023/10/01 14:56:31;;;;;;;11.68;4.97;;;20.50;99.90;;;;;;5025527;28;20037;-96
2023/10/01 14:58:58;;;;;;;10.27;5.30;;;20.40;99.90;;;;;;5041493;28;20059;-96
2023/10/01 15:01:24;;;;;;;10.43;5.65;;;20.40;99.90;;;;;;5025453;28;20045;-93
2023/10/01 15:03:56;;;;;;;12.15;4.80;;;20.40;99.90;;;;;;5008589;28;20040;-96
2023/10/01 15:06:23;;;;;;;9.95;5.18;;;20.40;99.90;;;;;;5036029;28;20044;-93
2023/10/01 15:08:50;;;;;;;;;;;20.40;99.90;;;;;;5034824;28;20040;-95
2023/10/01 15:11:16;;;;;;;10.02;5.18;;;20.40;99.90;;;;;;5039224;28;20010;-95
2023/10/01 15:13:46;;;;;;;10.93;5.50;;;20.40;99.90;;;;;;5022110;28;20033;-95
2023/10/01 15:16:14;;;;;;;10.95;4.93;;;20.40;99.90;;;;;;5019849;28;20044;-96
2023/10/01 15:18:41;;;;;;;10.75;5.22;;;20.40;99.90;;;;;;5021629;28;20048;-93